createdAt,value
2023-02-17T00:01:32.022Z,5.40
2023-02-17T00:04:00.398Z,6.40
2023-02-17T00:06:29.432Z,5.30
2023-02-17T00:09:01.812Z,6.60
2023-02-17T00:11:30.463Z,7.60
2023-02-17T00:13:58.628Z,6.60
2023-02-17T00:16:27.071Z,6.50
2023-02-17T00:18:59.735Z,7.30
2023-02-17T00:21:29.287Z,6.70
2023-02-17T00:23:57.875Z,8.10
2023-02-17T00:26:25.857Z,7.10
2023-02-17T00:28:54.339Z,7.80
2023-02-17T00:31:24.855Z,8.30
2023-02-17T00:33:55.132Z,7.80
2023-02-17T00:36:23.198Z,7.00
2023-02-17T00:38:53.673Z,6.30
2023-02-17T00:41:22.301Z,6.00
2023-02-17T00:43:51.018Z,6.80
2023-02-17T00:46:19.156Z,6.60
2023-02-17T00:48:48.349Z,6.20
2023-02-17T00:51:16.845Z,7.80
2023-02-17T00:53:46.066Z,7.40
2023-02-17T00:56:14.163Z,7.30
2023-02-17T00:58:42.138Z,8.40
2023-02-17T01:01:11.067Z,8.40
2023-02-17T01:03:42.228Z,9.30
2023-02-17T01:06:12.796Z,10.10
2023-02-17T01:08:41.698Z,10.80
2023-02-17T01:11:17.261Z,10.30
2023-02-17T01:13:45.221Z,10.80
2023-02-17T01:16:30.080Z,10.10
2023-02-17T01:19:04.860Z,9.40
2023-02-17T01:21:33.060Z,9.80
2023-02-17T01:24:02.340Z,10.50
2023-02-17T01:26:31.245Z,10.60
2023-02-17T01:29:00.877Z,10.70
2023-02-17T01:31:29.251Z,10.80
2023-02-17T01:33:59.682Z,10.60
2023-02-17T01:36:27.847Z,10.70
2023-02-17T01:39:00.410Z,12.30
2023-02-17T01:41:28.590Z,12.60
2023-02-17T01:44:16.885Z,11.60
2023-02-17T01:46:47.072Z,11.80
2023-02-17T01:49:23.537Z,12.30
2023-02-17T01:51:55.347Z,12.00
2023-02-17T01:54:33.671Z,12.40
2023-02-17T01:57:01.527Z,11.90
2023-02-17T01:59:29.711Z,12.10
2023-02-17T02:01:59.545Z,11.90
2023-02-17T02:04:29.641Z,10.60
2023-02-17T02:06:57.620Z,11.00
2023-02-17T02:09:35.783Z,11.30
2023-02-17T02:12:03.859Z,11.00
2023-02-17T02:14:33.162Z,13.60
2023-02-17T02:17:09.201Z,13.20
2023-02-17T02:19:49.678Z,13.50
2023-02-17T02:22:19.266Z,13.20
2023-02-17T02:25:22.298Z,14.20
2023-02-17T02:28:33.430Z,15.40
2023-02-17T02:31:28.556Z,14.00
2023-02-17T02:34:00.951Z,14.00
2023-02-17T02:36:34.472Z,13.00
2023-02-17T02:39:24.810Z,13.50
2023-02-17T02:41:59.009Z,12.10
2023-02-17T02:44:28.806Z,12.70
2023-02-17T02:47:01.767Z,12.70
2023-02-17T02:49:35.498Z,13.20
2023-02-17T02:52:06.586Z,11.90
2023-02-17T02:54:57.742Z,13.10
2023-02-17T02:57:25.661Z,12.70
2023-02-17T03:00:11.799Z,14.10
2023-02-17T03:02:53.809Z,14.90
2023-02-17T03:05:24.871Z,15.50
2023-02-17T03:08:11.478Z,15.20
2023-02-17T03:10:50.480Z,15.40
2023-02-17T03:13:19.834Z,14.70
2023-02-17T03:15:47.874Z,14.00
2023-02-17T03:18:16.377Z,13.60
2023-02-17T03:21:07.017Z,12.60
2023-02-17T03:23:37.429Z,13.50
2023-02-17T03:26:05.722Z,14.00
2023-02-17T03:28:34.274Z,14.50
2023-02-17T03:31:02.729Z,16.90
2023-02-17T03:33:30.738Z,14.80
2023-02-17T03:35:59.173Z,16.50
2023-02-17T03:38:27.099Z,18.00
2023-02-17T03:40:55.227Z,17.00
2023-02-17T03:43:23.052Z,17.80
2023-02-17T03:45:51.181Z,17.90
2023-02-17T03:48:19.197Z,19.70
2023-02-17T03:50:47.197Z,17.90
2023-02-17T03:53:15.094Z,15.50
2023-02-17T03:55:43.273Z,14.80
2023-02-17T03:58:12.268Z,16.80
2023-02-17T04:00:40.062Z,16.30
2023-02-17T04:03:17.527Z,17.00
2023-02-17T04:05:45.483Z,16.40
2023-02-17T04:08:13.437Z,17.30
2023-02-17T04:10:42.029Z,19.50
2023-02-17T04:13:09.931Z,19.30
2023-02-17T04:15:37.844Z,21.60
2023-02-17T04:18:05.860Z,21.30
2023-02-17T04:20:33.960Z,21.60
2023-02-17T04:23:01.860Z,22.70
2023-02-17T04:25:30.160Z,21.40
2023-02-17T04:27:57.958Z,20.60
2023-02-17T04:30:26.079Z,16.10
2023-02-17T04:32:54.513Z,18.90
2023-02-17T04:35:22.786Z,20.00
2023-02-17T04:37:51.292Z,18.60
2023-02-17T04:40:19.666Z,19.90
2023-02-17T04:42:51.202Z,20.50
2023-02-17T04:45:19.536Z,21.20
2023-02-17T04:47:47.391Z,22.00
2023-02-17T04:50:15.236Z,23.20
2023-02-17T04:52:43.183Z,22.30
2023-02-17T04:55:11.712Z,23.80
2023-02-17T04:57:39.556Z,20.70
2023-02-17T05:00:08.546Z,20.70
2023-02-17T05:02:37.169Z,19.40
2023-02-17T05:05:05.455Z,21.10
2023-02-17T05:07:33.406Z,19.70
2023-02-17T05:10:01.302Z,19.50
2023-02-17T05:12:29.679Z,20.40
2023-02-17T05:14:57.621Z,21.40
2023-02-17T05:17:25.950Z,23.50
2023-02-17T05:20:57.579Z,25.30
2023-02-17T05:23:25.470Z,24.80
2023-02-17T05:25:53.344Z,27.00
2023-02-17T05:28:21.754Z,26.90
2023-02-17T05:30:50.248Z,27.10
2023-02-17T05:33:18.856Z,23.40
2023-02-17T05:35:46.855Z,24.20
2023-02-17T05:38:14.962Z,22.20
2023-02-17T05:40:43.195Z,23.50
2023-02-17T05:43:11.215Z,22.20
2023-02-17T05:45:39.593Z,22.40
2023-02-17T05:48:12.460Z,25.10
2023-02-17T05:50:41.467Z,23.90
2023-02-17T05:53:09.737Z,24.70
2023-02-17T05:55:37.824Z,26.90
2023-02-17T05:58:05.786Z,25.70
2023-02-17T06:00:34.212Z,27.50
2023-02-17T06:03:02.334Z,27.30
2023-02-17T06:05:30.638Z,25.90
2023-02-17T06:07:58.707Z,24.60
2023-02-17T06:10:26.882Z,21.70
2023-02-17T06:12:54.804Z,24.10
2023-02-17T06:15:22.775Z,23.30
2023-02-17T06:17:50.712Z,23.00
2023-02-17T06:20:19.327Z,22.50
2023-02-17T06:22:47.213Z,25.90
2023-02-17T06:25:15.553Z,26.10
2023-02-17T06:27:44.336Z,27.40
2023-02-17T06:30:12.981Z,26.30
2023-02-17T06:32:41.350Z,25.40
2023-02-17T06:35:10.455Z,28.30
2023-02-17T06:37:39.212Z,23.10
2023-02-17T06:40:10.920Z,24.70
2023-02-17T06:42:42.538Z,24.40
2023-02-17T06:45:10.604Z,24.00
2023-02-17T06:47:38.727Z,24.90
2023-02-17T06:50:09.078Z,25.00
2023-02-17T06:52:38.598Z,26.10
2023-02-17T06:55:06.964Z,28.00
2023-02-17T06:57:35.374Z,27.10
2023-02-17T07:00:04.647Z,27.90
2023-02-17T07:02:33.079Z,29.20
2023-02-17T07:05:01.123Z,27.80
2023-02-17T07:07:29.352Z,29.90
2023-02-17T07:09:57.322Z,24.60
2023-02-17T07:12:29.224Z,26.20
2023-02-17T07:15:00.085Z,25.70
2023-02-17T07:17:28.170Z,24.00
2023-02-17T07:19:56.653Z,23.80
2023-02-17T07:22:26.220Z,24.90
2023-02-17T07:24:55.231Z,24.20
2023-02-17T07:27:23.536Z,25.20
2023-02-17T07:29:51.596Z,25.60
2023-02-17T07:32:19.648Z,29.90
2023-02-17T07:34:48.037Z,29.20
2023-02-17T07:37:16.549Z,29.60
2023-02-17T07:39:44.480Z,25.50
2023-02-17T07:42:15.106Z,26.40
2023-02-17T07:44:43.433Z,25.30
2023-02-17T07:47:11.638Z,26.00
2023-02-17T07:49:39.546Z,23.80
2023-02-17T07:52:07.520Z,26.10
2023-02-17T07:54:37.188Z,25.70
2023-02-17T07:57:05.113Z,27.90
2023-02-17T07:59:33.918Z,27.70
2023-02-17T08:02:01.919Z,26.70
2023-02-17T08:04:29.943Z,28.90
2023-02-17T08:06:58.207Z,27.60
2023-02-17T08:09:45.043Z,27.10
2023-02-17T08:12:37.252Z,27.50
2023-02-17T08:15:06.329Z,24.50
2023-02-17T08:17:34.722Z,26.00
2023-02-17T08:20:08.661Z,27.10
2023-02-17T08:22:39.957Z,27.30
2023-02-17T08:25:08.216Z,26.90
2023-02-17T08:27:36.148Z,30.40
2023-02-17T08:30:04.509Z,29.60
2023-02-17T08:32:32.674Z,29.90
2023-02-17T08:35:01.898Z,27.30
2023-02-17T08:37:31.906Z,25.60
2023-02-17T08:40:00.090Z,25.80
2023-02-17T08:42:28.074Z,25.40
2023-02-17T08:44:56.747Z,23.90
2023-02-17T08:47:24.713Z,26.20
2023-02-17T08:49:53.092Z,28.00
2023-02-17T08:52:21.344Z,28.10
2023-02-17T08:54:52.751Z,26.70
2023-02-17T08:57:21.865Z,31.30
2023-02-17T08:59:50.443Z,32.40
2023-02-17T09:02:18.480Z,29.20
2023-02-17T09:04:46.476Z,27.50
2023-02-17T09:07:14.756Z,26.60
2023-02-17T09:09:42.724Z,25.00
2023-02-17T09:12:10.811Z,26.00
2023-02-17T09:14:40.345Z,28.30
2023-02-17T09:17:08.327Z,29.10
2023-02-17T09:19:38.864Z,30.10
2023-02-17T09:22:07.299Z,29.60
2023-02-17T09:24:38.778Z,28.70
2023-02-17T09:27:06.831Z,24.00
2023-02-17T09:29:34.708Z,24.70
2023-02-17T09:32:07.011Z,24.00
2023-02-17T09:34:38.848Z,22.70
2023-02-17T09:37:12.984Z,24.50
2023-02-17T09:42:20.742Z,24.40
2023-02-17T09:45:00.031Z,23.20
2023-02-17T09:48:00.550Z,25.20
2023-02-17T09:50:33.357Z,24.10
2023-02-17T09:53:04.442Z,24.50
2023-02-17T09:55:43.999Z,21.30
2023-02-17T09:58:18.382Z,21.70
2023-02-17T10:00:51.774Z,23.00
2023-02-17T10:03:31.299Z,22.50
2023-02-17T10:06:21.628Z,22.40
2023-02-17T10:08:52.670Z,20.50
2023-02-17T10:11:44.733Z,21.80
2023-02-17T10:14:21.373Z,23.50
2023-02-17T10:16:56.429Z,23.20
2023-02-17T10:19:30.625Z,20.60
2023-02-17T10:22:05.066Z,20.20
2023-02-17T10:24:32.970Z,21.20
2023-02-17T10:27:05.396Z,20.50
2023-02-17T10:29:36.198Z,21.00
2023-02-17T10:32:12.464Z,20.50
2023-02-17T10:34:58.677Z,22.30
2023-02-17T10:37:41.869Z,20.70
2023-02-17T10:40:19.450Z,20.20
2023-02-17T10:42:49.133Z,20.10
2023-02-17T10:45:30.169Z,17.50
2023-02-17T10:48:04.072Z,17.00
2023-02-17T10:50:32.468Z,17.90
2023-02-17T10:53:00.455Z,17.70
2023-02-17T10:55:42.162Z,17.00
2023-02-17T10:58:19.765Z,18.70
2023-02-17T11:00:47.843Z,16.50
2023-02-17T11:03:21.812Z,18.30
2023-02-17T11:05:58.872Z,18.10
2023-02-17T11:08:37.018Z,19.00
2023-02-17T11:11:24.288Z,19.40
2023-02-17T11:14:02.466Z,17.30
2023-02-17T11:16:37.717Z,17.00
2023-02-17T11:19:07.019Z,16.40
2023-02-17T11:21:37.364Z,17.40
2023-02-17T11:24:05.776Z,19.00
2023-02-17T11:26:36.396Z,21.00
2023-02-17T11:29:18.507Z,22.50
2023-02-17T11:31:55.913Z,20.70
2023-02-17T11:34:26.281Z,21.30
2023-02-17T11:37:13.498Z,22.50
2023-02-17T11:39:43.360Z,22.90
2023-02-17T11:42:24.991Z,22.00
2023-02-17T11:44:54.931Z,20.10
2023-02-17T11:47:58.279Z,19.50
2023-02-17T11:50:45.024Z,18.60
2023-02-17T11:53:26.922Z,19.50
2023-02-17T11:56:06.595Z,17.70
2023-02-17T11:59:10.486Z,20.30
2023-02-17T12:02:05.135Z,21.00
2023-02-17T12:04:34.436Z,22.40
2023-02-17T12:07:53.066Z,23.60
2023-02-17T12:10:42.574Z,23.10
2023-02-17T12:13:33.136Z,22.50
2023-02-17T12:16:29.484Z,22.40
2023-02-17T12:19:25.445Z,21.60
2023-02-17T12:22:28.856Z,19.20
2023-02-17T12:25:15.584Z,18.20
2023-02-17T12:28:00.097Z,19.40
2023-02-17T12:30:41.403Z,21.10
2023-02-17T12:33:36.386Z,23.30
2023-02-17T12:36:11.934Z,26.30
2023-02-17T12:38:43.160Z,23.80
2023-02-17T12:41:23.181Z,23.50
2023-02-17T12:43:52.503Z,22.80
2023-02-17T12:46:24.682Z,25.60
2023-02-17T12:49:07.544Z,23.70
2023-02-17T12:51:40.311Z,25.60
2023-02-17T12:54:29.946Z,21.40
2023-02-17T12:57:10.384Z,23.20
2023-02-17T12:59:43.234Z,22.10
2023-02-17T13:02:30.903Z,22.10
2023-02-17T13:05:00.787Z,21.40
2023-02-17T13:08:05.361Z,22.80
2023-02-17T13:10:39.114Z,24.60
2023-02-17T13:13:11.869Z,24.70
2023-02-17T13:15:40.930Z,24.50
2023-02-17T13:18:11.727Z,26.20
2023-02-17T13:21:30.485Z,26.70
2023-02-17T13:24:09.002Z,28.00
2023-02-17T13:26:40.626Z,27.70
2023-02-17T13:29:20.860Z,24.50
2023-02-17T13:31:57.507Z,24.00
2023-02-17T13:34:28.782Z,24.40
2023-02-17T13:36:57.043Z,22.20
2023-02-17T13:39:28.362Z,24.80
2023-02-17T13:41:58.153Z,25.20
2023-02-17T13:44:42.016Z,26.80
2023-02-17T13:47:17.076Z,27.10
2023-02-17T13:49:52.625Z,25.70
2023-02-17T13:52:28.228Z,25.40
2023-02-17T13:54:57.950Z,25.00
2023-02-17T13:57:30.616Z,26.30
2023-02-17T14:00:25.060Z,26.20
2023-02-17T14:02:54.728Z,26.00
2023-02-17T14:05:37.542Z,25.30
2023-02-17T14:08:23.991Z,24.90
2023-02-17T14:10:52.095Z,23.90
2023-02-17T14:13:20.409Z,22.60
2023-02-17T14:15:54.135Z,23.20
2023-02-17T14:18:29.374Z,23.30
2023-02-17T14:21:05.152Z,23.60
2023-02-17T14:23:54.938Z,25.00
2023-02-17T14:26:29.052Z,24.10
2023-02-17T14:28:59.245Z,23.60
2023-02-17T14:31:27.358Z,23.50
2023-02-17T14:34:00.453Z,23.50
2023-02-17T14:36:36.440Z,23.50
2023-02-17T14:39:08.418Z,22.60
2023-02-17T14:41:36.668Z,22.20
2023-02-17T14:44:06.124Z,21.20
2023-02-17T14:46:34.575Z,21.80
2023-02-17T14:49:02.733Z,22.10
2023-02-17T14:51:35.222Z,18.30
2023-02-17T14:54:14.547Z,17.80
2023-02-17T14:57:11.711Z,17.30
2023-02-17T14:59:40.688Z,15.40
2023-02-17T15:02:19.608Z,15.70
2023-02-17T15:04:47.805Z,16.10
2023-02-17T15:07:17.717Z,15.90
2023-02-17T15:09:49.365Z,15.00
2023-02-17T15:12:19.567Z,15.90
2023-02-17T15:14:47.594Z,16.00
2023-02-17T15:17:15.776Z,14.00
2023-02-17T15:19:46.578Z,16.30
2023-02-17T15:22:16.495Z,14.80
2023-02-17T15:24:50.652Z,14.20
2023-02-17T15:27:19.388Z,14.40
2023-02-17T15:29:48.211Z,12.60
2023-02-17T15:32:18.934Z,12.40
2023-02-17T15:34:47.032Z,12.10
2023-02-17T15:37:15.036Z,12.30
2023-02-17T15:39:43.024Z,10.10
2023-02-17T15:42:13.945Z,11.60
2023-02-17T15:44:48.876Z,11.60
2023-02-17T15:47:18.545Z,9.70
2023-02-17T15:49:46.699Z,11.20
2023-02-17T15:52:15.250Z,12.00
2023-02-17T15:54:43.709Z,10.80
2023-02-17T15:57:23.048Z,11.80
2023-02-17T15:59:55.170Z,11.00
2023-02-17T16:02:25.333Z,10.60
2023-02-17T16:04:54.279Z,11.70
2023-02-17T16:07:22.963Z,12.60
2023-02-17T16:09:50.919Z,11.20
2023-02-17T16:12:26.556Z,9.00
2023-02-17T16:14:55.753Z,11.40
2023-02-17T16:17:27.918Z,10.10
2023-02-17T16:19:56.001Z,10.50
2023-02-17T16:22:24.280Z,12.40
2023-02-17T16:25:12.715Z,13.90
2023-02-17T16:27:42.033Z,15.10
2023-02-17T16:30:17.092Z,13.30
2023-02-17T16:32:46.044Z,13.40
2023-02-17T16:35:18.444Z,15.20
2023-02-17T16:37:52.553Z,14.90
2023-02-17T16:40:21.537Z,14.20
2023-02-17T16:42:50.103Z,14.30
2023-02-17T16:45:19.601Z,15.30
2023-02-17T16:47:52.634Z,12.60
2023-02-17T16:50:22.964Z,13.60
2023-02-17T16:52:53.425Z,13.00
2023-02-17T16:55:22.765Z,13.50
2023-02-17T16:57:51.067Z,14.00
2023-02-17T17:00:21.628Z,14.40
2023-02-17T17:02:49.966Z,15.50
2023-02-17T17:05:19.708Z,17.40
2023-02-17T17:07:48.247Z,16.90
2023-02-17T17:10:24.863Z,17.80
2023-02-17T17:12:53.323Z,16.20
2023-02-17T17:15:21.925Z,15.70
2023-02-17T17:18:00.641Z,15.60
2023-02-17T17:20:34.368Z,13.90
2023-02-17T17:23:06.796Z,16.20
2023-02-17T17:25:37.554Z,16.60
2023-02-17T17:28:05.605Z,16.80
2023-02-17T17:30:35.710Z,17.20
2023-02-17T17:33:04.079Z,20.20
2023-02-17T17:38:29.113Z,19.60
2023-02-17T17:40:57.300Z,18.30
2023-02-17T17:43:25.343Z,16.70
2023-02-17T17:45:54.327Z,17.10
2023-02-17T17:48:22.329Z,15.10
2023-02-17T17:50:50.280Z,14.70
2023-02-17T17:53:18.507Z,15.40
2023-02-17T17:55:47.321Z,15.10
2023-02-17T17:58:17.354Z,17.70
2023-02-17T18:00:50.468Z,15.50
2023-02-17T18:03:18.680Z,16.60
2023-02-17T18:05:46.523Z,17.40
2023-02-17T18:08:15.062Z,15.50
2023-02-17T18:10:43.072Z,15.10
2023-02-17T18:13:16.575Z,14.60
2023-02-17T18:15:44.556Z,12.40
2023-02-17T18:18:12.467Z,13.30
2023-02-17T18:20:40.310Z,13.20
2023-02-17T18:23:08.388Z,14.10
2023-02-17T18:25:36.315Z,13.20
2023-02-17T18:28:04.300Z,12.40
2023-02-17T18:30:33.780Z,15.20
2023-02-17T18:33:02.502Z,14.60
2023-02-17T18:35:35.414Z,14.80
2023-02-17T18:38:03.367Z,14.50
2023-02-17T18:40:40.105Z,14.40
2023-02-17T18:43:08.606Z,11.70
2023-02-17T18:45:36.791Z,12.70
2023-02-17T18:48:05.398Z,12.40
2023-02-17T18:50:34.668Z,13.40
2023-02-17T18:53:05.164Z,11.10
2023-02-17T18:55:36.326Z,12.80
2023-02-17T18:58:04.465Z,13.80
2023-02-17T19:00:33.423Z,11.60
2023-02-17T19:03:04.435Z,12.80
2023-02-17T19:05:32.771Z,11.40
2023-02-17T19:08:07.016Z,10.90
2023-02-17T19:10:35.641Z,10.00
2023-02-17T19:13:03.595Z,11.40
2023-02-17T19:15:32.552Z,9.90
2023-02-17T19:18:00.882Z,10.80
2023-02-17T19:20:32.883Z,11.80
2023-02-17T19:23:01.737Z,9.70
2023-02-17T19:25:29.796Z,11.10
2023-02-17T19:27:57.957Z,10.70
2023-02-17T19:30:25.946Z,10.40
2023-02-17T19:32:53.869Z,9.40
2023-02-17T19:35:21.839Z,9.40
2023-02-17T19:37:53.063Z,8.80
2023-02-17T19:40:21.034Z,11.20
2023-02-17T19:42:48.888Z,10.60
2023-02-17T19:45:16.877Z,12.20
2023-02-17T19:47:46.184Z,12.70
2023-02-17T19:50:16.047Z,12.00
2023-02-17T19:52:45.451Z,12.50
2023-02-17T19:55:13.653Z,11.80
2023-02-17T19:57:41.537Z,12.00
2023-02-17T20:00:10.338Z,12.40
2023-02-17T20:02:38.722Z,12.90
2023-02-17T20:05:08.559Z,12.10
2023-02-17T20:07:36.692Z,11.90
2023-02-17T20:10:10.751Z,11.30
2023-02-17T20:12:38.734Z,12.10
2023-02-17T20:15:06.921Z,11.00
2023-02-17T20:17:36.605Z,11.30
2023-02-17T20:20:05.922Z,10.70
2023-02-17T20:22:33.770Z,12.10
2023-02-17T20:25:01.650Z,12.80
2023-02-17T20:27:30.431Z,13.90
2023-02-17T20:30:00.887Z,13.10
2023-02-17T20:32:29.179Z,13.40
2023-02-17T20:34:57.209Z,15.30
2023-02-17T20:37:25.089Z,15.90
2023-02-17T20:39:52.951Z,14.70
2023-02-17T20:42:20.790Z,13.40
2023-02-17T20:44:50.412Z,14.30
2023-02-17T20:47:18.445Z,13.50
2023-02-17T20:49:46.716Z,14.90
2023-02-17T20:52:14.734Z,15.90
2023-02-17T20:54:42.964Z,14.60
2023-02-17T20:57:14.140Z,16.00
2023-02-17T20:59:44.648Z,15.80
2023-02-17T21:02:13.485Z,15.70
2023-02-17T21:04:41.623Z,15.90
2023-02-17T21:07:10.781Z,14.90
2023-02-17T21:09:45.345Z,15.90
2023-02-17T21:12:13.465Z,14.70
2023-02-17T21:14:41.498Z,15.00
2023-02-17T21:17:09.371Z,16.30
2023-02-17T21:19:37.629Z,18.00
2023-02-17T21:22:05.665Z,18.50
2023-02-17T21:24:33.600Z,20.20
2023-02-17T21:27:01.442Z,19.20
2023-02-17T21:29:29.403Z,19.10
2023-02-17T21:31:57.481Z,19.00
2023-02-17T21:34:26.153Z,18.80
2023-02-17T21:36:54.028Z,16.90
2023-02-17T21:39:22.696Z,20.40
2023-02-17T21:41:51.350Z,19.50
2023-02-17T21:44:37.850Z,21.50
2023-02-17T21:47:05.862Z,22.00
2023-02-17T21:49:35.148Z,20.60
2023-02-17T21:52:03.099Z,22.00
2023-02-17T21:54:31.442Z,21.70
2023-02-17T21:56:59.311Z,20.40
2023-02-17T21:59:27.230Z,20.80
2023-02-17T22:01:55.094Z,21.20
2023-02-17T22:04:23.911Z,22.60
2023-02-17T22:06:51.902Z,24.60
2023-02-17T22:09:20.058Z,22.70
2023-02-17T22:11:48.007Z,23.40
2023-02-17T22:14:17.640Z,22.40
2023-02-17T22:16:46.343Z,21.70
2023-02-17T22:19:18.995Z,22.30
2023-02-17T22:21:47.099Z,21.50
2023-02-17T22:24:16.391Z,23.50
2023-02-17T22:26:44.482Z,24.80
2023-02-17T22:29:14.920Z,23.50
2023-02-17T22:31:43.484Z,24.00
2023-02-17T22:34:14.206Z,21.80
2023-02-17T22:36:42.280Z,20.90
2023-02-17T22:39:10.363Z,23.30
2023-02-17T22:41:40.777Z,22.30
2023-02-17T22:44:08.905Z,24.00
2023-02-17T22:46:36.810Z,24.10
2023-02-17T22:49:05.031Z,27.20
2023-02-17T22:51:37.859Z,23.70
2023-02-17T22:54:06.288Z,24.20
2023-02-17T22:56:36.015Z,23.50
2023-02-17T22:59:05.674Z,19.30
2023-02-17T23:01:35.086Z,24.50
2023-02-17T23:04:03.388Z,24.80
2023-02-17T23:06:33.258Z,24.40
2023-02-17T23:09:01.686Z,24.00
2023-02-17T23:11:50.009Z,24.00
2023-02-17T23:14:20.850Z,24.60
2023-02-17T23:16:48.898Z,22.60
2023-02-17T23:19:19.986Z,23.90
2023-02-17T23:21:53.396Z,22.50
2023-02-17T23:24:21.593Z,22.70
2023-02-17T23:26:49.711Z,25.30
2023-02-17T23:29:18.033Z,23.40
2023-02-17T23:31:46.270Z,23.90
2023-02-17T23:34:14.989Z,24.80
2023-02-17T23:36:43.195Z,22.70
2023-02-17T23:39:11.145Z,22.10
2023-02-17T23:41:39.483Z,23.50
2023-02-17T23:44:08.693Z,22.10
2023-02-17T23:46:37.884Z,25.50
2023-02-17T23:49:06.155Z,25.30
2023-02-17T23:51:34.256Z,25.70
2023-02-17T23:54:02.695Z,23.30
2023-02-17T23:56:32.649Z,24.20
2023-02-17T23:59:00.917Z,25.50
